Pagina principale
METAR-TAF:

METAR-TAF

Aeroporti :

Elsenborn

Bütgenbach, Belgio

latitudine: 50-28N, longitudine: 006-11E, altezza: 564 m

Osservazione

Il bollettino è stato emesso 30 minuti fa, alle 16:25 UTC
Vento 7 kt da est/nord-est
Temperature 18°C
Umidità 34%
Pressione 1021 hPa
Visibilità 10 km o più

METAR: EBLB 311625Z AUTO 06007KT 9999 NCD 18/02 Q1021 BLU

Ora: 18:55 (16:55 UTC)


TAF: mancante

Osservazioni e previsioni meteorologiche di più di 4000 aeroporti (messaggi METAR e TAF).

Le stazioni disponibili sono rappresentate dai dischi gialli e rossi sulla carta.

Puntare il mouse per vedere il nome della stazione.

Clicca sopra per visualizzare le osservazioni e previsioni meteorologiche.

Per cambiare la mappa : fare clic sui pulsanti verdi con una croce nera per ingrandire, il pulsante verde con un trattino per diminuire, o sulla freccia verde per le mappe adiacenti.


METAR-TAF: